Аэропорт: Одесса. Одесса

ICAO: UKOO

METAR:
2018/09/23 11:00
UKOO 231100Z 34005MPS 9999 SCT025 16/10 Q1020 R34/190058 NOSIG
METAR:
2018/09/23 12:15
TAF UKOO 231103Z 2312/2412 34003G08MPS 6000 SCT010 SCT020CB 
      BECMG 2321/2322 17003MPS 2100 BR 
      BECMG 2403/2404 18008G14MPS 6000 NSW